Latest Weather Observations for Urandangi

IDQ60801

Issued at 3:02 pm EST Sunday 31 July 2016 (issued every 30 minutes, with the page automatically refreshed every 10 minutes)

About weather observations | Map of weather stations | Latest weather observations for QLD | Other Formats
Station Details ID: 037058 Name: URANDANGI AERODROME Lat: -21.60 Lon: 138.37 Height: 178.6 m
Data from the previous 72 hours. | See also: Recent months at Urandangi
Date/Time
EST
Temp
°C
App
Temp
°C
Dew
Point
°C
Rel
Hum
%
Delta-T
°C
Wind Press
QNH
hPa
Press
MSL
hPa
Rain since
9am
mm
Dir  Spd
km/h
Gust
km/h
Spd
kts
Gust
kts
31/03:00pm 26.4 22.9 -1.4 16 12.7 ESE 7 13 4 7 1014.4 1014.2 0.0
31/02:30pm 25.8 22.0 -1.1 17 12.3 ESE 9 15 5 8 1014.8 1014.6 0.0
31/02:00pm 25.9 22.1 -1.0 17 12.3 SSE 9 17 5 9 1015.4 1015.2 0.0
31/01:30pm 25.0 21.1 -1.7 17 12.0 ESE 9 17 5 9 1016.1 1015.9 0.0
31/01:00pm 24.6 21.2 -0.5 19 11.5 SE 7 19 4 10 1016.7 1016.5 0.0
31/12:30pm 24.2 20.9 -0.2 20 11.2 SE 7 17 4 9 1017.2 1017.1 0.0
31/12:00pm 23.3 20.0 -0.2 21 10.7 SE 7 13 4 7 1017.9 1017.7 0.0
31/11:30am 22.8 19.3 1.2 24 10.1 ESE 9 19 5 10 1018.5 1018.3 0.0
31/11:00am 22.5 18.9 0.9 24 10.0 E 9 17 5 9 1019.1 1018.9 0.0
31/10:30am 20.9 16.9 0.7 26 9.2 E 11 17 6 9 1019.3 1019.1 0.0
31/10:00am 19.7 15.1 1.7 30 8.3 E 15 19 8 10 1019.2 1019.0 0.0
31/09:30am 16.5 13.8 2.5 39 6.4 ESE 6 9 3 5 1019.4 1019.2 0.0
31/09:00am 14.0 11.0 2.3 45 5.2 SE 7 9 4 5 1019.2 1019.0 0.0
31/08:30am 10.5 7.8 2.6 58 3.4 SE 6 11 3 6 1018.8 1018.6 0.0
31/08:00am 5.9 2.9 1.1 71 1.9 SE 6 7 3 4 1018.6 1018.4 0.0
31/07:30am 3.8 0.5 0.0 76 1.4 ESE 7 9 4 5 1018.4 1018.2 0.0
31/07:00am 4.6 1.3 -0.2 71 1.8 ESE 7 7 4 4 1018.3 1018.1 0.0
31/06:30am 5.4 2.4 0.6 71 1.9 ESE 6 7 3 4 1018.2 1018.0 0.0
31/06:00am 5.4 2.2 0.6 71 1.9 ESE 7 7 4 4 1018.0 1017.8 0.0
31/05:30am 5.2 2.9 0.6 72 1.8 SE 2 4 1 2 1018.0 1017.8 0.0
31/05:00am 4.7 1.6 0.3 73 1.7 ESE 6 9 3 5 1017.6 1017.5 0.0
31/04:30am 4.2 1.0 -0.4 72 1.7 SE 6 6 3 3 1017.5 1017.4 0.0
31/04:00am 4.7 1.5 -0.7 68 2.0 SE 6 6 3 3 1017.7 1017.6 0.0
31/03:30am 6.3 4.3 -0.2 63 2.5 CALM 0 0 0 0 1018.0 1017.8 0.0
31/03:00am 6.6 3.3 0.1 63 2.5 SSW 7 9 4 5 1018.0 1017.8 0.0
31/02:30am 6.3 3.0 0.2 65 2.4 SSE 7 9 4 5 1017.9 1017.7 0.0
31/02:00am 7.0 4.3 0.2 62 2.7 SSE 4 7 2 4 1017.9 1017.7 0.0
31/01:30am 7.8 5.9 0.3 59 3.0 CALM 0 0 0 0 1017.9 1017.7 0.0
31/01:00am 8.1 5.0 -0.1 56 3.2 ESE 6 7 3 4 1017.7 1017.6 0.0
31/12:30am 9.1 6.1 0.6 55 3.5 SE 6 6 3 3 1018.1 1017.9 0.0
31/12:00am 9.1 5.9 0.6 55 3.5 SE 7 7 4 4 1018.1 1017.9 0.0
 
Date/Time
EST
Temp
°C
App
Temp
°C
Dew
Point
°C
Rel
Hum
%
Delta-T
°C
Wind Press
QNH
hPa
Press
MSL
hPa
Rain since
9am
mm
Dir  Spd
km/h
Gust
km/h
Spd
kts
Gust
kts
30/11:30pm 8.8 5.1 -0.2 53 3.6 SE 9 11 5 6 1018.2 1018.0 0.0
30/11:00pm 10.9 7.8 0.3 48 4.4 ESE 6 7 3 4 1018.4 1018.2 0.0
30/10:30pm 11.2 8.1 0.3 47 4.5 ESE 6 6 3 3 1018.4 1018.2 0.0
30/10:00pm 11.9 8.6 0.1 44 4.9 SSE 7 9 4 5 1018.4 1018.2 0.0
30/09:30pm 12.1 8.8 -0.1 43 5.0 SE 7 7 4 4 1018.3 1018.1 0.0
30/09:00pm 12.7 8.6 -0.5 40 5.4 SE 11 13 6 7 1018.3 1018.1 0.0
30/08:30pm 14.1 10.4 0.0 38 6.0 SE 9 11 5 6 1018.1 1017.9 0.0
30/08:00pm 15.0 11.7 0.1 36 6.4 ESE 7 9 4 5 1018.0 1017.8 0.0
30/07:30pm 16.0 12.7 -0.2 33 6.9 SE 7 7 4 4 1017.5 1017.4 0.0
30/07:00pm 17.5 13.3 -0.7 29 7.8 SE 11 13 6 7 1017.1 1016.9 0.0
30/06:30pm 19.7 15.5 -0.9 25 9.0 SE 11 13 6 7 1016.7 1016.5 0.0
30/06:00pm 23.2 18.6 -1.0 20 10.9 SSE 13 19 7 10 1016.5 1016.3 0.0
30/05:30pm 24.6 20.0 -1.3 18 11.7 SSE 13 17 7 9 1016.4 1016.2 0.0
30/05:00pm 25.1 21.0 -0.1 19 11.7 SSE 11 20 6 11 1016.3 1016.1 0.0
30/04:30pm 25.4 20.6 0.1 19 11.8 SSE 15 20 8 11 1016.5 1016.3 0.0
30/04:00pm 25.6 21.0 -1.2 17 12.2 SE 13 22 7 12 1016.8 1016.6 0.0
30/03:30pm 25.6 21.5 -0.5 18 12.1 SE 11 20 6 11 1017.0 1016.8 0.0
30/03:00pm 25.3 20.7 -0.7 18 11.9 SE 13 22 7 12 1017.2 1017.1 0.0
30/02:30pm 24.5 19.9 -1.3 18 11.6 SE 13 22 7 12 1017.9 1017.7 0.0
30/02:00pm 25.0 20.4 -0.9 18 11.8 ESE 13 24 7 13 1018.3 1018.1 0.0
30/01:30pm 24.6 19.2 -1.3 18 11.7 SE 17 24 9 13 1018.8 1018.6 0.0
30/01:00pm 24.3 20.3 0.6 21 11.0 ESE 11 24 6 13 1019.4 1019.2 0.0
30/12:30pm 24.0 19.2 0.4 21 11.0 ESE 15 22 8 12 1019.9 1019.7 0.0
30/12:00pm 22.9 18.3 1.3 24 10.1 E 15 22 8 12 1020.5 1020.3 0.0
30/11:30am 22.0 17.3 3.2 29 9.1 ESE 17 28 9 15 1021.1 1020.9 0.0
30/11:00am 21.4 16.7 3.1 30 8.7 E 17 24 9 13 1021.3 1021.1 0.0
30/10:30am 20.4 15.2 3.6 33 8.1 E 20 28 11 15 1021.5 1021.3 0.0
30/10:00am 18.7 14.9 4.1 38 7.0 ESE 13 19 7 10 1021.5 1021.3 0.0
30/09:30am 15.6 12.5 3.7 45 5.5 ESE 9 15 5 8 1021.4 1021.2 0.0
30/09:00am 12.6 9.7 2.7 51 4.4 ESE 7 11 4 6 1021.3 1021.1 0.0
30/08:30am 9.8 6.8 1.9 58 3.3 SE 7 13 4 7 1021.0 1020.8 0.0
30/08:00am 6.3 3.4 1.4 71 2.0 SE 6 6 3 3 1021.0 1020.8 0.0
30/07:30am 3.7 0.6 -0.1 76 1.4 SE 6 6 3 3 1020.7 1020.5 0.0
30/07:00am 4.2 1.5 0.4 76 1.5 SE 4 6 2 3 1020.5 1020.3 0.0
30/06:30am 4.0 0.9 0.2 76 1.5 S 6 6 3 3 1020.3 1020.1 0.0
30/06:00am 3.8 1.0 -0.4 74 1.6 SSE 4 6 2 3 1020.3 1020.1 0.0
30/05:30am 4.2 1.4 -0.2 73 1.7 SSE 4 6 2 3 1020.0 1019.8 0.0
30/05:00am 5.3 3.4 0.5 71 1.9 CALM 0 0 0 0 1020.0 1019.8 0.0
30/04:30am 6.0 3.4 1.0 70 2.0 S 4 4 2 2 1020.1 1019.9 0.0
30/04:00am 5.8 2.8 0.6 69 2.0 SSE 6 6 3 3 1020.0 1019.8 0.0
30/03:30am 6.3 2.7 0.4 66 2.3 S 9 9 5 5 1019.9 1019.7 0.0
30/03:00am 6.9 4.4 1.4 68 2.2 S 4 6 2 3 1019.9 1019.7 0.0
30/02:30am 7.2 4.3 1.3 66 2.4 SE 6 7 3 4 1020.1 1019.9 0.0
30/02:00am 7.5 4.7 1.8 67 2.3 SE 6 7 3 4 1020.1 1019.9 0.0
30/01:30am 7.3 4.7 1.2 65 2.5 SE 4 4 2 2 1020.4 1020.2 0.0
30/01:00am 7.8 5.3 1.6 65 2.5 SE 4 6 2 3 1020.2 1020.0 0.0
30/12:30am 8.1 5.2 1.7 64 2.7 SE 6 7 3 4 1020.2 1020.0 0.0
30/12:00am 8.4 5.0 1.6 62 2.8 SE 9 9 5 5 1020.4 1020.2 0.0
 
Date/Time
EST
Temp
°C
App
Temp
°C
Dew
Point
°C
Rel
Hum
%
Delta-T
°C
Wind Press
QNH
hPa
Press
MSL
hPa
Rain since
9am
mm
Dir  Spd
km/h
Gust
km/h
Spd
kts
Gust
kts
29/11:30pm 9.0 6.1 1.7 60 3.1 SE 6 7 3 4 1020.7 1020.5 0.0
29/11:00pm 9.5 6.5 1.7 58 3.3 SE 7 9 4 5 1020.8 1020.6 0.0
29/10:30pm 9.7 6.2 1.4 56 3.5 SE 9 9 5 5 1020.9 1020.7 0.0
29/10:00pm 11.0 7.2 1.8 53 3.9 SE 11 13 6 7 1020.8 1020.6 0.0
29/09:30pm 11.2 7.8 1.7 52 4.1 SE 9 11 5 6 1020.7 1020.5 0.0
29/09:00pm 11.8 8.7 1.2 48 4.5 ESE 7 9 4 5 1020.6 1020.4 0.0
29/08:30pm 13.9 10.1 1.9 44 5.3 SSE 11 13 6 7 1020.3 1020.1 0.0
29/08:00pm 14.3 10.5 1.6 42 5.6 SSE 11 13 6 7 1020.1 1019.9 0.0
29/07:30pm 15.5 11.2 1.3 38 6.3 SSE 13 15 7 8 1019.8 1019.6 0.0
29/07:00pm 16.9 13.4 1.0 34 7.0 SSE 9 11 5 6 1019.5 1019.3 0.0
29/06:30pm 19.6 15.2 0.6 28 8.5 SE 13 17 7 9 1019.2 1019.0 0.0
29/06:00pm 22.7 17.6 0.5 23 10.2 SE 17 24 9 13 1019.0 1018.8 0.0
29/05:30pm 23.8 18.3 0.8 22 10.7 SSE 19 26 10 14 1018.8 1018.6 0.0
29/05:00pm 24.2 18.4 -0.2 20 11.2 ESE 20 28 11 15 1018.7 1018.5 0.0
29/04:30pm 24.6 18.8 0.2 20 11.3 SE 20 32 11 17 1018.7 1018.5 0.0
29/04:00pm 25.0 19.3 0.5 20 11.5 SSE 20 30 11 16 1018.8 1018.6 0.0
29/03:30pm 24.9 19.3 1.1 21 11.3 SSE 20 32 11 17 1019.2 1019.0 0.0
29/03:00pm 24.7 19.4 1.6 22 11.0 SE 19 30 10 16 1019.4 1019.2 0.0
29/02:30pm 24.0 19.1 2.2 24 10.5 SE 17 26 9 14 1019.7 1019.5 0.0
29/02:00pm 23.6 18.8 2.4 25 10.2 SSE 17 24 9 13 1020.1 1019.9 0.0
29/01:30pm 23.1 18.8 3.1 27 9.7 SSE 15 24 8 13 1020.5 1020.3 0.0
29/01:00pm 22.5 17.5 3.6 29 9.2 SSE 19 33 10 18 1021.1 1020.9 0.0
29/12:30pm 21.7 16.6 2.9 29 9.0 SE 19 24 10 13 1021.7 1021.5 0.0
29/12:00pm 21.9 17.5 4.5 32 8.6 ESE 17 30 9 16 1022.2 1022.1 0.0
29/11:30am 20.3 15.5 4.4 35 7.7 SE 19 24 10 13 1022.6 1022.5 0.0
29/11:00am 18.9 14.3 3.9 37 7.1 SE 17 24 9 13 1023.0 1022.9 0.0
29/10:30am 17.9 13.8 4.1 40 6.6 SE 15 20 8 11 1023.1 1023.0 0.0
29/10:00am 16.0 12.2 4.1 45 5.6 SE 13 19 7 10 1023.3 1023.2 0.0
29/09:30am 14.0 10.2 3.8 50 4.7 SE 13 19 7 10 1023.4 1023.3 0.0
29/09:00am 11.8 7.9 3.6 57 3.7 SE 13 17 7 9 1023.2 1023.1 0.0
29/08:30am 9.3 6.2 3.5 67 2.5 SE 9 11 5 6 1023.1 1023.0 0.0
29/08:00am 6.0 3.3 2.6 79 1.4 SE 6 6 3 3 1023.0 1022.9 0.0
29/07:30am 3.9 1.0 1.3 83 1.0 ESE 6 6 3 3 1022.8 1022.7 0.0
29/07:00am 3.8 0.9 1.2 83 1.0 ESE 6 6 3 3 1022.7 1022.6 0.0
29/06:30am 3.8 0.9 1.2 83 1.0 ESE 6 7 3 4 1022.5 1022.4 0.0
29/06:00am 4.5 1.6 1.4 80 1.2 E 6 7 3 4 1022.2 1022.1 0.0
29/05:30am 5.4 3.0 2.1 79 1.3 SE 4 6 2 3 1022.1 1022.0 0.0
29/05:00am 5.7 2.3 2.0 77 1.5 S 9 13 5 7 1022.1 1022.0 0.0
29/04:30am 5.3 2.5 2.0 79 1.3 SSE 6 7 3 4 1022.1 1022.0 0.0
29/04:00am 4.7 2.1 1.0 77 1.4 SSE 4 6 2 3 1022.0 1021.9 0.0
29/03:30am 5.1 2.5 1.0 75 1.6 SSE 4 6 2 3 1022.1 1022.0 0.0
29/03:00am 5.3 2.4 1.4 76 1.6 SSE 6 7 3 4 1022.2 1022.1 0.0
29/02:30am 5.7 2.2 1.4 74 1.7 SSE 9 11 5 6 1022.4 1022.3 0.0
29/02:00am 5.9 2.8 1.1 71 1.9 SSE 7 7 4 4 1022.8 1022.7 0.0
29/01:30am 6.3 3.2 1.4 71 2.0 SSE 7 9 4 5 1023.1 1023.0 0.0
29/01:00am 6.7 3.2 1.4 69 2.1 SE 9 9 5 5 1022.9 1022.8 0.0
29/12:30am 8.3 6.3 2.3 66 2.5 SE 2 4 1 2 1023.2 1023.1 0.0
29/12:00am 8.2 5.8 2.0 65 2.6 SE 4 6 2 3 1023.1 1023.0 0.0
 
Date/Time
EST
Temp
°C
App
Temp
°C
Dew
Point
°C
Rel
Hum
%
Delta-T
°C
Wind Press
QNH
hPa
Press
MSL
hPa
Rain since
9am
mm
Dir  Spd
km/h
Gust
km/h
Spd
kts
Gust
kts
28/11:30pm 8.0 5.2 2.0 66 2.5 SSE 6 6 3 3 1023.3 1023.2 0.0
28/11:00pm 8.6 5.6 1.7 62 2.9 SSE 7 7 4 4 1023.4 1023.3 0.0
28/10:30pm 10.3 7.3 1.9 56 3.6 SSE 7 9 4 5 1023.5 1023.4 0.0
28/10:00pm 11.8 7.7 2.3 52 4.1 SSE 13 15 7 8 1023.2 1023.1 0.0
28/09:30pm 12.8 8.7 2.4 49 4.6 SSE 13 15 7 8 1023.3 1023.2 0.0
28/09:00pm 12.9 8.8 2.5 49 4.6 SE 13 15 7 8 1023.1 1023.0 0.0
28/08:30pm 12.5 8.7 1.8 48 4.6 SSE 11 13 6 7 1023.1 1023.0 0.0
28/08:00pm 13.4 9.5 1.4 44 5.2 SE 11 13 6 7 1022.8 1022.7 0.0
28/07:30pm 15.4 11.4 0.8 37 6.4 SE 11 13 6 7 1022.5 1022.4 0.0
28/07:00pm 18.0 13.7 1.1 32 7.5 SSE 13 19 7 10 1022.3 1022.2 0.0
28/06:30pm 19.2 14.5 1.2 30 8.2 SSE 15 20 8 11 1022.1 1022.0 0.0
28/06:00pm 21.0 15.7 1.8 28 8.9 SE 19 24 10 13 1021.8 1021.6 0.0
28/05:30pm 22.0 15.7 1.6 26 9.5 SE 24 32 13 17 1021.3 1021.1 0.0
28/05:00pm 22.6 16.8 2.1 26 9.7 SSE 22 35 12 19 1021.4 1021.2 0.0
28/04:30pm 23.0 16.8 1.9 25 10.0 SE 24 35 13 19 1021.3 1021.1 0.0
28/04:00pm 23.0 16.9 2.5 26 9.8 SSE 24 35 13 19 1021.1 1020.9 0.0
28/03:30pm 23.2 17.6 3.2 27 9.7 SSE 22 33 12 18 1021.5 1021.3 0.0

Other Formats:

Comma delimited format used in spreadsheet applications
http://www.bom.gov.au/fwo/IDQ60801/IDQ60801.94344.axf

JavaScript Object Notation format (JSON) in row-major order
http://www.bom.gov.au/fwo/IDQ60801/IDQ60801.94344.json